Flight Track Log - Related Links

Times and Time Zones

All times are in EDT time to prevent confusion due to time zone crossing. See the KAP5 flight status page for this flight to view local times or setup timezone preferences in your user account.

Time Position Orientation Groundspeed Altitude Reporting Facility
EDT Latitude Longitude Course Direction KTS MPH feet Rate Location/Type
Sat 05:22:40 PM 42.3667 -71.0167 270° West 111 128 500  Level KA90
Sat 05:23:53 PM 42.3500 -71.0667 246° West 106 122 2,100 1,128 Climbing KA90
Sat 05:24:53 PM 42.3500 -71.1000 270° West 112 129 3,000 950 Climbing KA90
Sat 05:25:53 PM 42.3500 -71.1500 270° West 121 139 4,000 850 Climbing KA90
Sat 05:26:53 PM 42.3333 -71.2000 246° West 123 142 4,700 650 Climbing KA90
Sat 05:27:53 PM 42.3333 -71.2333 270° West 114 131 5,300 650 Climbing KA90
Sat 05:28:00 PM 42.3167 -71.3232 270° West  Level FlightAware Approximate
Sat 05:28:53 PM 42.3333 -71.2833 270° West 114 131 6,000  Level KA90
Sat 05:29:53 PM 42.3167 -71.3167 236° Southwest 111 128 6,600 650 Climbing KA90
Sat 05:30:53 PM 42.3167 -71.3667 270° West 110 127 7,300 650 Climbing KA90
Sat 05:31:53 PM 42.3167 -71.4000 270° West 117 135 7,900 339 Climbing KA90
Sat 05:32:57 PM 42.3044 -71.4631 255° West 143 165 8,000 57 Climbing Boston Center
Sat 05:33:39 PM 42.3006 -71.5053 263° West 159 183 8,000  Level Boston Center
Sat 05:34:40 PM 42.2950 -71.5672 263° West 164 189 8,000  Level Boston Center
Sat 05:35:41 PM 42.2869 -71.6289 260° West 168 193 8,000  Level Boston Center
Sat 05:36:42 PM 42.2811 -71.6908 263° West 167 192 8,000  Level Boston Center
Sat 05:37:43 PM 42.2733 -71.7556 261° West 166 191 8,000  Level Boston Center
Sat 05:38:44 PM 42.2653 -71.8172 260° West 164 189 8,000  Level Boston Center
Sat 05:39:45 PM 42.2678 -71.8789 273° West 161 185 8,000  Level Boston Center
Sat 05:40:46 PM 42.2681 -71.9350 270° West 156 180 8,000  Level Boston Center
Sat 05:41:46 PM 42.2703 -71.9939 273° West 153 176 8,000  Level Boston Center
Sat 05:42:47 PM 42.2706 -72.0500 270° West 153 176 8,000  Level Boston Center
Sat 05:43:48 PM 42.2792 -72.1089 281° West 155 178 8,000  Level Boston Center
Sat 05:44:49 PM 42.2939 -72.1650 290° West 154 177 8,000  Level Boston Center
Sat 05:45:56 PM 42.3106 -72.2211 292° West 153 176 8,000  Level Boston Center
Sat 05:46:56 PM 42.3253 -72.2744 290° West 150 173 8,000  Level Boston Center
Sat 05:47:57 PM 42.3400 -72.3278 290° West 147 169 8,000  Level Boston Center
Sat 05:48:52 PM 42.3525 -72.3728 291° West 148 170 8,000  Level Boston Center
Sat 05:49:52 PM 42.3692 -72.4289 292° West 149 171 8,000  Level Boston Center
Sat 05:50:53 PM 42.3836 -72.4794 291° West 150 173 8,000  Level Boston Center
Sat 05:51:54 PM 42.3983 -72.5356 290° West 149 171 8,000  Level Boston Center
Sat 05:52:55 PM 42.4128 -72.5892 290° West 151 174 8,000 50 Level Boston Center
Sat 05:53:55 PM 42.4272 -72.6397 291° West 151 174 8,100 50 Climbing Boston Center
Sat 05:54:56 PM 42.4439 -72.6906 294° West 151 174 8,100  Level Boston Center
Sat 05:55:57 PM 42.4603 -72.7497 291° West 151 174 8,100  Level Boston Center
Sat 05:56:42 PM 42.4708 -72.7892 290° West 151 174 8,100  Level Boston Center
Sat 05:57:42 PM 42.4872 -72.8400 294° West 150 173 8,100  Level Boston Center
Sat 05:58:42 PM 42.5017 -72.8906 291° West 151 174 8,100  Level Boston Center
Sat 05:59:43 PM 42.5161 -72.9442 290° West 152 175 8,100  Level Boston Center
Sat 06:00:44 PM 42.5303 -73.0008 289° West 152 175 8,100  Level Boston Center
Sat 06:01:44 PM 42.5447 -73.0544 290° West 152 175 8,100 -99 Level Boston Center
Sat 06:02:45 PM 42.5611 -73.1108 292° West 153 176 7,900 -344 Descending Boston Center
Sat 06:03:46 PM 42.5772 -73.1731 289° West 168 193 7,400 -520 Descending Boston Center
Sat 06:04:52 PM 42.5956 -73.2356 292° West 175 201 6,800 -567 Descending Boston Center
Sat 06:05:53 PM 42.6119 -73.2978 290° West 173 199 6,200 -541 Descending Boston Center
Sat 06:06:54 PM 42.6300 -73.3572 292° West 172 198 5,700 -541 Descending Boston Center
Sat 06:07:55 PM 42.6442 -73.4222 287° West 173 199 5,100 -559 Descending Boston Center
Sat 06:08:52 PM 42.6625 -73.4764 295° West 174 200 4,600 -574 Descending Boston Center
Sat 06:09:50 PM 42.6786 -73.5414 289° West 175 201 4,000 -478 Descending Boston Center
Sat 06:10:45 PM 42.6906 -73.5925 288° West 174 200 3,700 -417 Descending Boston Center
Sat 06:11:45 PM 42.7189 -73.6581 300° West 177 204 3,200 -645 Descending Boston Center
Sat 06:12:46 PM 42.7392 -73.7206 294° West 185 213 2,400 -787 Descending Boston Center
Sat 06:13:47 PM 42.7783 -73.7639 321° Northwest 187 215 1,600 -793 Descending Boston Center
Sat 06:14:47 PM 42.7758 -73.8036 265° West 125 144 800 -800 Descending Boston Center
Sat 06:16:00 PM 42.7491 -73.8020 177° South  Level Estimated
Sat 06:23:00 PM 42.7491 -73.8020 304° West  Level Estimated
Sat 06:24:00 PM 42.7491 -73.8020 304° West  Level Estimated
Sat 06:25:00 PM 42.7491 -73.8020 304° West  Level Estimated

Login

Don't have an account? Register now (free) for customized features, flight alerts, and more!